Terminal Aerodrome Forecast
Issued by NWS Caribou, ME

Home | Current Version | Previous Version | Text Only | Print | Product List | Glossary On
Versions: 1 2 3 4 5 6 7 8 9 10 11 12 13 14 15 16 17 18 19 20 21 22 23 24
447
FTUS41 KCAR 192145 AAD
TAFCAR
TAF AMD
KCAR 192145Z 1922/2018 28012KT P6SM VCSH BKN015 OVC025
      TEMPO 1922/1924 5SM -SHRA BR SCT008 OVC015
     FM200000 26015KT P6SM OVC015
     FM200200 27016KT P6SM BKN035=

USA.gov is the U.S. government's official web portal to all federal, state and local government web resources and services.